AAL458 KDEN-TNCM
Flight info
| Callsign | AAL458 |
|---|---|
| Flight time | N/A |
| Altitude | 35000 |
| Route | EPKEE7 DUUZE Q150 EXHAS DCT WMICO DCT GRREY DCT FAYEE DCT DUUCK DCT RRS DCT SPRNG DCT SATOW Y185 RENAH Y355 PLING DCT SLUGO |
| Aircraft | B738/M-SDE2E3FGHIRWXY/LB1 |
Departure
| Time | N/A |
|---|---|
| Airport | Denver International Airport (KDEN) |
Arrival
| Time | 2026-05-03 21:26 |
|---|---|
| Airport | Princess Juliana International Airport (TNCM) |
| Time | Latitude | Longitude | Altitude | Speed | Heading |
|---|---|---|---|---|---|
| 2026-05-03 20:22 | 22.10350 | -69.67733 | 35045 ft | 492 kts | 129° |
| 2026-05-03 20:22 | 22.08252 | -69.64823 | 35045 ft | 492 kts | 129° |
| 2026-05-03 20:23 | 22.04048 | -69.59001 | 35038 ft | 492 kts | 129° |
| 2026-05-03 20:23 | 21.99850 | -69.53194 | 35044 ft | 491 kts | 129° |
| 2026-05-03 20:24 | 21.95648 | -69.47388 | 35046 ft | 491 kts | 129° |
| 2026-05-03 20:24 | 21.91444 | -69.41585 | 35047 ft | 491 kts | 129° |
| 2026-05-03 20:25 | 21.87242 | -69.35790 | 35046 ft | 491 kts | 129° |
| 2026-05-03 20:25 | 21.83038 | -69.29999 | 35047 ft | 490 kts | 129° |
| 2026-05-03 20:26 | 21.79546 | -69.25194 | 35045 ft | 490 kts | 129° |
| 2026-05-03 20:26 | 21.75347 | -69.19421 | 35047 ft | 490 kts | 129° |
| 2026-05-03 20:27 | 21.71148 | -69.13655 | 35048 ft | 490 kts | 129° |
| 2026-05-03 20:27 | 21.66947 | -69.07892 | 35048 ft | 490 kts | 129° |
| 2026-05-03 20:28 | 21.62743 | -69.02130 | 35049 ft | 489 kts | 129° |
| 2026-05-03 20:28 | 21.58539 | -68.96376 | 35049 ft | 489 kts | 129° |
| 2026-05-03 20:29 | 21.54336 | -68.90628 | 35049 ft | 489 kts | 129° |
| 2026-05-03 20:29 | 21.50133 | -68.84886 | 35048 ft | 489 kts | 129° |
| 2026-05-03 20:30 | 21.45926 | -68.79145 | 35051 ft | 489 kts | 129° |
| 2026-05-03 20:30 | 21.41719 | -68.73410 | 35047 ft | 489 kts | 129° |
| 2026-05-03 20:31 | 21.37515 | -68.67685 | 35049 ft | 489 kts | 129° |
| 2026-05-03 20:31 | 21.33308 | -68.61961 | 35049 ft | 488 kts | 129° |
| 2026-05-03 20:32 | 21.29098 | -68.56240 | 35053 ft | 488 kts | 129° |
| 2026-05-03 20:32 | 21.24891 | -68.50529 | 35050 ft | 488 kts | 129° |
| 2026-05-03 20:33 | 21.20685 | -68.44825 | 35050 ft | 488 kts | 129° |
| 2026-05-03 20:33 | 21.16477 | -68.39123 | 35052 ft | 487 kts | 129° |
| 2026-05-03 20:34 | 21.12298 | -68.33467 | 35053 ft | 487 kts | 129° |
| 2026-05-03 20:34 | 21.08063 | -68.27740 | 35051 ft | 487 kts | 129° |
| 2026-05-03 20:35 | 21.03884 | -68.22095 | 35054 ft | 487 kts | 129° |
| 2026-05-03 20:35 | 20.99674 | -68.16414 | 35054 ft | 487 kts | 129° |
| 2026-05-03 20:36 | 20.95463 | -68.10738 | 35054 ft | 487 kts | 129° |
| 2026-05-03 20:36 | 20.91226 | -68.05031 | 35057 ft | 487 kts | 129° |
| 2026-05-03 20:37 | 20.87042 | -67.99400 | 35051 ft | 487 kts | 129° |
| 2026-05-03 20:37 | 20.82858 | -67.93714 | 35053 ft | 486 kts | 128° |
| 2026-05-03 20:38 | 20.78712 | -67.88003 | 35054 ft | 486 kts | 128° |
| 2026-05-03 20:38 | 20.74564 | -67.82293 | 35054 ft | 486 kts | 128° |
| 2026-05-03 20:39 | 20.70412 | -67.76596 | 35054 ft | 486 kts | 128° |
| 2026-05-03 20:39 | 20.66253 | -67.70902 | 35055 ft | 486 kts | 128° |
| 2026-05-03 20:40 | 20.62093 | -67.65211 | 35058 ft | 486 kts | 128° |
| 2026-05-03 20:40 | 20.57937 | -67.59531 | 35051 ft | 486 kts | 128° |
| 2026-05-03 20:41 | 20.53780 | -67.53854 | 35055 ft | 485 kts | 128° |
| 2026-05-03 20:41 | 20.49625 | -67.48186 | 35056 ft | 485 kts | 128° |
| 2026-05-03 20:42 | 20.45469 | -67.42521 | 35056 ft | 485 kts | 128° |
| 2026-05-03 20:42 | 20.41314 | -67.36861 | 35054 ft | 484 kts | 128° |
| 2026-05-03 20:43 | 20.37157 | -67.31208 | 35056 ft | 484 kts | 128° |
| 2026-05-03 20:43 | 20.33005 | -67.25566 | 35053 ft | 484 kts | 128° |
| 2026-05-03 20:44 | 20.28852 | -67.19927 | 35051 ft | 484 kts | 128° |
| 2026-05-03 20:44 | 20.24696 | -67.14287 | 35050 ft | 483 kts | 128° |
| 2026-05-03 20:45 | 20.20545 | -67.08659 | 35052 ft | 483 kts | 128° |
| 2026-05-03 20:45 | 20.16394 | -67.03036 | 35052 ft | 483 kts | 128° |
| 2026-05-03 20:46 | 20.12239 | -66.97414 | 35053 ft | 483 kts | 128° |
| 2026-05-03 20:46 | 20.08086 | -66.91799 | 35051 ft | 483 kts | 128° |
| 2026-05-03 20:47 | 20.03932 | -66.86187 | 35055 ft | 483 kts | 128° |
| 2026-05-03 20:47 | 19.99789 | -66.80580 | 35047 ft | 483 kts | 127° |
| 2026-05-03 20:48 | 19.96408 | -66.74432 | 35060 ft | 482 kts | 117° |
| 2026-05-03 20:48 | 19.93332 | -66.68146 | 35057 ft | 482 kts | 117° |
| 2026-05-03 20:49 | 19.90217 | -66.61830 | 35058 ft | 483 kts | 118° |
| 2026-05-03 20:49 | 19.87073 | -66.55525 | 35057 ft | 483 kts | 118° |
| 2026-05-03 20:50 | 19.83918 | -66.49227 | 35048 ft | 483 kts | 118° |
| 2026-05-03 20:50 | 19.80760 | -66.42933 | 35047 ft | 483 kts | 118° |
| 2026-05-03 20:51 | 19.77596 | -66.36632 | 35056 ft | 483 kts | 118° |
| 2026-05-03 20:51 | 19.74433 | -66.30336 | 35052 ft | 483 kts | 118° |
| 2026-05-03 20:52 | 19.71265 | -66.24038 | 35047 ft | 483 kts | 118° |
| 2026-05-03 20:52 | 19.68101 | -66.17755 | 35052 ft | 483 kts | 118° |
| 2026-05-03 20:53 | 19.64927 | -66.11459 | 35051 ft | 483 kts | 118° |
| 2026-05-03 20:53 | 19.61756 | -66.05174 | 35059 ft | 483 kts | 118° |
| 2026-05-03 20:54 | 19.58583 | -65.98894 | 35059 ft | 483 kts | 118° |
| 2026-05-03 20:54 | 19.53822 | -65.89483 | 35060 ft | 483 kts | 118° |
| 2026-05-03 20:55 | 19.50643 | -65.83207 | 35051 ft | 483 kts | 118° |
| 2026-05-03 20:55 | 19.47467 | -65.76946 | 35045 ft | 483 kts | 118° |
| 2026-05-03 20:56 | 19.44287 | -65.70681 | 35045 ft | 483 kts | 118° |
| 2026-05-03 20:56 | 19.41106 | -65.64421 | 35054 ft | 483 kts | 118° |
| 2026-05-03 20:57 | 19.37920 | -65.58159 | 35058 ft | 482 kts | 118° |
| 2026-05-03 20:57 | 19.34735 | -65.51904 | 35052 ft | 482 kts | 118° |
| 2026-05-03 20:58 | 19.31548 | -65.45654 | 35044 ft | 483 kts | 118° |
| 2026-05-03 20:58 | 19.28361 | -65.39410 | 35045 ft | 483 kts | 118° |
| 2026-05-03 20:59 | 19.25168 | -65.33158 | 35056 ft | 483 kts | 118° |
| 2026-05-03 20:59 | 19.21970 | -65.26906 | 35060 ft | 483 kts | 118° |
| 2026-05-03 21:00 | 19.19854 | -65.22771 | 35046 ft | 483 kts | 118° |
| 2026-05-03 21:00 | 19.15592 | -65.14455 | 35051 ft | 483 kts | 118° |
| 2026-05-03 21:01 | 19.12390 | -65.08214 | 35058 ft | 483 kts | 118° |
| 2026-05-03 21:01 | 19.09185 | -65.01972 | 35057 ft | 483 kts | 118° |
| 2026-05-03 21:02 | 19.05974 | -64.95728 | 35047 ft | 483 kts | 118° |
| 2026-05-03 21:02 | 19.02765 | -64.89493 | 35052 ft | 483 kts | 118° |
| 2026-05-03 21:03 | 18.99549 | -64.83250 | 35054 ft | 483 kts | 118° |
| 2026-05-03 21:03 | 18.97939 | -64.80127 | 34891 ft | 486 kts | 118° |
| 2026-05-03 21:03 | 18.96314 | -64.76976 | 34343 ft | 488 kts | 118° |
| 2026-05-03 21:04 | 18.94691 | -64.73832 | 33513 ft | 489 kts | 118° |
| 2026-05-03 21:04 | 18.93064 | -64.70681 | 32767 ft | 488 kts | 118° |
| 2026-05-03 21:04 | 18.91439 | -64.67535 | 31998 ft | 487 kts | 118° |
| 2026-05-03 21:04 | 18.89814 | -64.64393 | 31215 ft | 487 kts | 118° |
| 2026-05-03 21:05 | 18.88192 | -64.61257 | 30398 ft | 487 kts | 118° |
| 2026-05-03 21:05 | 18.86566 | -64.58115 | 29455 ft | 488 kts | 118° |
| 2026-05-03 21:05 | 18.84938 | -64.54971 | 28493 ft | 488 kts | 118° |
| 2026-05-03 21:05 | 18.83315 | -64.51838 | 28002 ft | 486 kts | 118° |
| 2026-05-03 21:06 | 18.81714 | -64.48750 | 27837 ft | 471 kts | 118° |
| 2026-05-03 21:06 | 18.80167 | -64.45768 | 27696 ft | 455 kts | 118° |
| 2026-05-03 21:06 | 18.78696 | -64.42933 | 27646 ft | 438 kts | 118° |
| 2026-05-03 21:06 | 18.77242 | -64.40131 | 27631 ft | 422 kts | 118° |
| 2026-05-03 21:07 | 18.75877 | -64.37504 | 27630 ft | 406 kts | 118° |
| 2026-05-03 21:07 | 18.74543 | -64.34937 | 27627 ft | 391 kts | 118° |
| 2026-05-03 21:07 | 18.73258 | -64.32465 | 27628 ft | 377 kts | 118° |
| 2026-05-03 21:07 | 18.72020 | -64.30082 | 27633 ft | 364 kts | 118° |
| 2026-05-03 21:08 | 18.70811 | -64.27758 | 27630 ft | 351 kts | 118° |
| 2026-05-03 21:08 | 18.69675 | -64.25575 | 27628 ft | 338 kts | 117° |
| 2026-05-03 21:08 | 18.68565 | -64.23441 | 27631 ft | 325 kts | 118° |
| 2026-05-03 21:08 | 18.67498 | -64.21393 | 27628 ft | 314 kts | 117° |
| 2026-05-03 21:09 | 18.66456 | -64.19391 | 27518 ft | 311 kts | 117° |
| 2026-05-03 21:09 | 18.65413 | -64.17389 | 27166 ft | 312 kts | 117° |
| 2026-05-03 21:09 | 18.64368 | -64.15382 | 26772 ft | 313 kts | 117° |
| 2026-05-03 21:09 | 18.63316 | -64.13362 | 26354 ft | 314 kts | 117° |
| 2026-05-03 21:10 | 18.62260 | -64.11336 | 25641 ft | 322 kts | 117° |
| 2026-05-03 21:10 | 18.61149 | -64.09202 | 24956 ft | 343 kts | 117° |
| 2026-05-03 21:10 | 18.59951 | -64.06901 | 24339 ft | 373 kts | 117° |
| 2026-05-03 21:10 | 18.58658 | -64.04420 | 23721 ft | 395 kts | 117° |
| 2026-05-03 21:11 | 18.57322 | -64.01863 | 23034 ft | 401 kts | 117° |
| 2026-05-03 21:11 | 18.55974 | -63.99285 | 22383 ft | 402 kts | 118° |
| 2026-05-03 21:11 | 18.54630 | -63.96716 | 21678 ft | 399 kts | 118° |
| 2026-05-03 21:11 | 18.53299 | -63.94173 | 20994 ft | 394 kts | 118° |
| 2026-05-03 21:12 | 18.51984 | -63.91660 | 20326 ft | 390 kts | 119° |
| 2026-05-03 21:12 | 18.50682 | -63.89172 | 19725 ft | 385 kts | 119° |
| 2026-05-03 21:12 | 18.49827 | -63.87540 | 19362 ft | 381 kts | 119° |
| 2026-05-03 21:12 | 18.48135 | -63.84308 | 18633 ft | 374 kts | 120° |
| 2026-05-03 21:13 | 18.47304 | -63.82723 | 18276 ft | 372 kts | 120° |
| 2026-05-03 21:13 | 18.46061 | -63.80350 | 17662 ft | 368 kts | 120° |
| 2026-05-03 21:13 | 18.44832 | -63.78006 | 17067 ft | 364 kts | 120° |
| 2026-05-03 21:13 | 18.43613 | -63.75682 | 16484 ft | 361 kts | 120° |
| 2026-05-03 21:14 | 18.42406 | -63.73380 | 15901 ft | 358 kts | 120° |
| 2026-05-03 21:14 | 18.41208 | -63.71097 | 15336 ft | 354 kts | 119° |
| 2026-05-03 21:14 | 18.40018 | -63.68832 | 14693 ft | 353 kts | 119° |
| 2026-05-03 21:14 | 18.38780 | -63.66607 | 14005 ft | 352 kts | 127° |
| 2026-05-03 21:15 | 18.37112 | -63.64738 | 13284 ft | 349 kts | 136° |
| 2026-05-03 21:15 | 18.35340 | -63.62996 | 12534 ft | 348 kts | 137° |
| 2026-05-03 21:15 | 18.33565 | -63.61280 | 11820 ft | 345 kts | 137° |
| 2026-05-03 21:15 | 18.31805 | -63.59573 | 11096 ft | 343 kts | 137° |
| 2026-05-03 21:16 | 18.30090 | -63.57898 | 10895 ft | 325 kts | 137° |
| 2026-05-03 21:16 | 18.28487 | -63.56321 | 10780 ft | 306 kts | 137° |
| 2026-05-03 21:16 | 18.27971 | -63.55812 | 10751 ft | 300 kts | 137° |
| 2026-05-03 21:16 | 18.27711 | -63.55554 | 10728 ft | 297 kts | 137° |
| 2026-05-03 21:17 | 18.26467 | -63.54324 | 10635 ft | 283 kts | 137° |
| 2026-05-03 21:17 | 18.25067 | -63.52937 | 10540 ft | 272 kts | 136° |
| 2026-05-03 21:17 | 18.23704 | -63.51585 | 10454 ft | 268 kts | 137° |
| 2026-05-03 21:17 | 18.22351 | -63.50242 | 10386 ft | 269 kts | 136° |
| 2026-05-03 21:18 | 18.20974 | -63.48875 | 9864 ft | 283 kts | 136° |
| 2026-05-03 21:18 | 18.19483 | -63.47396 | 9145 ft | 295 kts | 136° |
| 2026-05-03 21:18 | 18.17998 | -63.45923 | 8576 ft | 294 kts | 136° |
| 2026-05-03 21:18 | 18.16517 | -63.44453 | 8070 ft | 290 kts | 136° |
| 2026-05-03 21:19 | 18.15061 | -63.43008 | 7565 ft | 287 kts | 135° |
| 2026-05-03 21:19 | 18.13618 | -63.41577 | 7072 ft | 283 kts | 135° |
| 2026-05-03 21:19 | 18.12190 | -63.40160 | 6584 ft | 281 kts | 135° |
| 2026-05-03 21:19 | 18.10780 | -63.38761 | 6083 ft | 277 kts | 135° |
| 2026-05-03 21:20 | 18.09410 | -63.37403 | 5875 ft | 257 kts | 135° |
| 2026-05-03 21:20 | 18.08159 | -63.36164 | 5652 ft | 240 kts | 135° |
| 2026-05-03 21:20 | 18.06996 | -63.35012 | 5444 ft | 223 kts | 135° |
| 2026-05-03 21:20 | 18.05835 | -63.33860 | 4713 ft | 232 kts | 135° |
| 2026-05-03 21:21 | 18.04659 | -63.32694 | 4056 ft | 233 kts | 135° |
| 2026-05-03 21:21 | 18.03492 | -63.31539 | 3411 ft | 233 kts | 135° |
| 2026-05-03 21:21 | 18.02337 | -63.30339 | 2946 ft | 224 kts | 126° |
| 2026-05-03 21:21 | 18.01746 | -63.28944 | 2709 ft | 206 kts | 103° |
| 2026-05-03 21:22 | 18.01696 | -63.27494 | 2444 ft | 191 kts | 86° |
| 2026-05-03 21:22 | 18.01873 | -63.26192 | 2280 ft | 169 kts | 83° |
| 2026-05-03 21:22 | 18.02050 | -63.25022 | 2116 ft | 157 kts | 83° |
| 2026-05-03 21:22 | 18.02216 | -63.23905 | 2015 ft | 155 kts | 82° |
| 2026-05-03 21:23 | 18.02380 | -63.22793 | 1955 ft | 150 kts | 83° |
| 2026-05-03 21:23 | 18.02532 | -63.21754 | 1822 ft | 140 kts | 83° |
| 2026-05-03 21:23 | 18.02678 | -63.20756 | 1651 ft | 138 kts | 82° |
| 2026-05-03 21:23 | 18.02820 | -63.19774 | 1482 ft | 135 kts | 81° |
| 2026-05-03 21:24 | 18.02961 | -63.18799 | 1327 ft | 137 kts | 83° |
| 2026-05-03 21:24 | 18.03103 | -63.17801 | 1153 ft | 137 kts | 82° |
| 2026-05-03 21:24 | 18.03244 | -63.16822 | 967 ft | 136 kts | 82° |
| 2026-05-03 21:24 | 18.03385 | -63.15833 | 791 ft | 137 kts | 82° |
| 2026-05-03 21:25 | 18.03524 | -63.14839 | 615 ft | 139 kts | 82° |
| 2026-05-03 21:25 | 18.03658 | -63.13836 | 395 ft | 133 kts | 79° |
| 2026-05-03 21:25 | 18.03815 | -63.12897 | 261 ft | 135 kts | 81° |
| 2026-05-03 21:25 | 18.03947 | -63.11937 | 64 ft | 130 kts | 82° |
| 2026-05-03 21:26 | 18.04067 | -63.11068 | 27 ft | 97 kts | 82° |
| 2026-05-03 21:26 | 18.04125 | -63.10663 | 26 ft | 34 kts | 82° |
| 2026-05-03 21:26 | 18.04134 | -63.10523 | 27 ft | 6 kts | 355° |
| 2026-05-03 21:26 | 18.04137 | -63.10610 | 27 ft | 26 kts | 258° |
| 2026-05-03 21:27 | 18.04103 | -63.10840 | 26 ft | 36 kts | 261° |
| 2026-05-03 21:27 | 18.04062 | -63.11099 | 27 ft | 36 kts | 261° |
| 2026-05-03 21:27 | 18.04070 | -63.11283 | 30 ft | 16 kts | 326° |
| 2026-05-03 21:27 | 18.04138 | -63.11300 | 27 ft | 7 kts | 350° |
| 2026-05-03 21:28 | 18.04186 | -63.11307 | 28 ft | 7 kts | 352° |
| 2026-05-03 21:28 | 18.04233 | -63.11309 | 28 ft | 7 kts | 13° |
| 2026-05-03 21:28 | 18.04279 | -63.11256 | 28 ft | 9 kts | 60° |
| 2026-05-03 21:28 | 18.04321 | -63.11221 | 28 ft | 7 kts | 353° |
| 2026-05-03 21:29 | 18.04345 | -63.11226 | 28 ft | 1 kts | 349° |
| 2026-05-03 21:29 | 18.04347 | -63.11227 | 28 ft | 0 kts | 349° |